sensor_id;sensor_type;location;lat;lon;timestamp;temperature;humidity
43183;DHT22;28802;38.578;-0.066;2022-12-10T00:00:17;14.70;99.90
43183;DHT22;28802;38.578;-0.066;2022-12-10T00:02:43;14.70;99.90
43183;DHT22;28802;38.578;-0.066;2022-12-10T00:05:09;14.80;99.90
43183;DHT22;28802;38.578;-0.066;2022-12-10T00:07:35;14.80;99.90
43183;DHT22;28802;38.578;-0.066;2022-12-10T00:10:01;14.80;99.90
43183;DHT22;28802;38.578;-0.066;2022-12-10T00:12:26;14.80;99.90
43183;DHT22;28802;38.578;-0.066;2022-12-10T00:14:52;14.80;99.90
43183;DHT22;28802;38.578;-0.066;2022-12-10T00:17:18;14.90;99.90
43183;DHT22;28802;38.578;-0.066;2022-12-10T00:19:46;14.80;99.90
43183;DHT22;28802;38.578;-0.066;2022-12-10T00:22:12;14.70;99.90
43183;DHT22;28802;38.578;-0.066;2022-12-10T00:24:38;14.70;99.90
43183;DHT22;28802;38.578;-0.066;2022-12-10T00:27:04;14.80;99.90
43183;DHT22;28802;38.578;-0.066;2022-12-10T00:29:30;14.80;99.90
43183;DHT22;28802;38.578;-0.066;2022-12-10T00:31:56;14.80;99.90
43183;DHT22;28802;38.578;-0.066;2022-12-10T00:34:22;14.70;99.90
43183;DHT22;28802;38.578;-0.066;2022-12-10T00:36:48;14.80;99.90
43183;DHT22;28802;38.578;-0.066;2022-12-10T00:39:18;14.80;99.90
43183;DHT22;28802;38.578;-0.066;2022-12-10T00:41:45;14.60;99.90
43183;DHT22;28802;38.578;-0.066;2022-12-10T00:44:11;14.70;99.90
43183;DHT22;28802;38.578;-0.066;2022-12-10T00:46:38;14.60;99.90
43183;DHT22;28802;38.578;-0.066;2022-12-10T00:49:04;14.70;99.90
43183;DHT22;28802;38.578;-0.066;2022-12-10T00:51:30;14.60;99.90
43183;DHT22;28802;38.578;-0.066;2022-12-10T00:53:57;14.80;99.90
43183;DHT22;28802;38.578;-0.066;2022-12-10T00:56:26;14.90;99.90
43183;DHT22;28802;38.578;-0.066;2022-12-10T00:58:53;14.90;99.90
43183;DHT22;28802;38.578;-0.066;2022-12-10T01:01:28;14.80;99.90
43183;DHT22;28802;38.578;-0.066;2022-12-10T01:03:56;14.70;99.90
43183;DHT22;28802;38.578;-0.066;2022-12-10T01:06:57;14.70;99.90
43183;DHT22;28802;38.578;-0.066;2022-12-10T01:09:20;14.70;99.90
43183;DHT22;28802;38.578;-0.066;2022-12-10T01:11:49;14.60;99.90
43183;DHT22;28802;38.578;-0.066;2022-12-10T01:14:18;14.60;99.90
43183;DHT22;28802;38.578;-0.066;2022-12-10T01:16:47;14.60;99.90
43183;DHT22;28802;38.578;-0.066;2022-12-10T01:19:13;14.60;99.90
43183;DHT22;28802;38.578;-0.066;2022-12-10T01:21:39;14.50;99.90
43183;DHT22;28802;38.578;-0.066;2022-12-10T01:24:07;14.60;99.90
43183;DHT22;28802;38.578;-0.066;2022-12-10T01:26:34;14.60;99.90
43183;DHT22;28802;38.578;-0.066;2022-12-10T01:29:01;14.60;99.90
43183;DHT22;28802;38.578;-0.066;2022-12-10T01:31:33;14.60;99.90
43183;DHT22;28802;38.578;-0.066;2022-12-10T01:34:00;14.50;99.90
43183;DHT22;28802;38.578;-0.066;2022-12-10T01:36:31;14.50;99.90
43183;DHT22;28802;38.578;-0.066;2022-12-10T01:38:58;14.60;99.90
43183;DHT22;28802;38.578;-0.066;2022-12-10T01:41:32;14.60;99.90
43183;DHT22;28802;38.578;-0.066;2022-12-10T01:44:02;14.60;99.90
43183;DHT22;28802;38.578;-0.066;2022-12-10T01:46:34;14.70;99.90
43183;DHT22;28802;38.578;-0.066;2022-12-10T01:49:06;14.70;99.90
43183;DHT22;28802;38.578;-0.066;2022-12-10T01:51:34;14.80;99.90
43183;DHT22;28802;38.578;-0.066;2022-12-10T01:54:04;14.90;99.90
43183;DHT22;28802;38.578;-0.066;2022-12-10T01:56:31;14.90;99.90
43183;DHT22;28802;38.578;-0.066;2022-12-10T01:58:58;15.10;99.90
43183;DHT22;28802;38.578;-0.066;2022-12-10T02:01:34;15.30;99.90
43183;DHT22;28802;38.578;-0.066;2022-12-10T02:06:58;15.40;99.90
43183;DHT22;28802;38.578;-0.066;2022-12-10T02:12:37;15.20;99.90
43183;DHT22;28802;38.578;-0.066;2022-12-10T02:15:16;15.10;99.90
43183;DHT22;28802;38.578;-0.066;2022-12-10T02:17:47;15.20;99.90
43183;DHT22;28802;38.578;-0.066;2022-12-10T02:20:33;15.10;99.90
43183;DHT22;28802;38.578;-0.066;2022-12-10T02:23:11;15.00;99.90
43183;DHT22;28802;38.578;-0.066;2022-12-10T02:31:20;14.90;99.90
43183;DHT22;28802;38.578;-0.066;2022-12-10T02:33:51;14.80;99.90
43183;DHT22;28802;38.578;-0.066;2022-12-10T02:36:20;14.70;99.90
43183;DHT22;28802;38.578;-0.066;2022-12-10T02:38:49;14.70;99.90
43183;DHT22;28802;38.578;-0.066;2022-12-10T02:41:22;14.70;99.90
43183;DHT22;28802;38.578;-0.066;2022-12-10T02:43:52;14.60;99.90
43183;DHT22;28802;38.578;-0.066;2022-12-10T02:46:21;14.60;99.90
43183;DHT22;28802;38.578;-0.066;2022-12-10T02:48:50;14.60;99.90
43183;DHT22;28802;38.578;-0.066;2022-12-10T02:51:16;14.60;99.90
43183;DHT22;28802;38.578;-0.066;2022-12-10T02:53:43;14.60;99.90
43183;DHT22;28802;38.578;-0.066;2022-12-10T02:59:13;14.80;99.90
43183;DHT22;28802;38.578;-0.066;2022-12-10T03:02:19;14.90;99.90
43183;DHT22;28802;38.578;-0.066;2022-12-10T03:04:57;15.10;99.90
43183;DHT22;28802;38.578;-0.066;2022-12-10T03:07:35;15.10;99.90
43183;DHT22;28802;38.578;-0.066;2022-12-10T03:10:09;15.10;99.90
43183;DHT22;28802;38.578;-0.066;2022-12-10T03:12:47;15.10;99.90
43183;DHT22;28802;38.578;-0.066;2022-12-10T03:15:15;15.20;99.90
43183;DHT22;28802;38.578;-0.066;2022-12-10T03:17:43;15.20;99.90
43183;DHT22;28802;38.578;-0.066;2022-12-10T03:20:12;15.20;99.90
43183;DHT22;28802;38.578;-0.066;2022-12-10T03:22:42;15.20;99.90
43183;DHT22;28802;38.578;-0.066;2022-12-10T03:25:10;15.20;99.90
43183;DHT22;28802;38.578;-0.066;2022-12-10T03:27:39;15.30;99.90
43183;DHT22;28802;38.578;-0.066;2022-12-10T03:30:07;15.20;99.90
43183;DHT22;28802;38.578;-0.066;2022-12-10T03:32:33;15.30;99.90
43183;DHT22;28802;38.578;-0.066;2022-12-10T03:35:00;15.30;99.90
43183;DHT22;28802;38.578;-0.066;2022-12-10T03:37:27;15.30;99.90
43183;DHT22;28802;38.578;-0.066;2022-12-10T03:40:01;15.20;99.90
43183;DHT22;28802;38.578;-0.066;2022-12-10T03:42:28;15.30;99.90
43183;DHT22;28802;38.578;-0.066;2022-12-10T03:44:54;15.10;99.90
43183;DHT22;28802;38.578;-0.066;2022-12-10T03:47:20;15.20;99.90
43183;DHT22;28802;38.578;-0.066;2022-12-10T03:49:46;15.10;99.90
43183;DHT22;28802;38.578;-0.066;2022-12-10T03:52:12;15.00;99.90
43183;DHT22;28802;38.578;-0.066;2022-12-10T03:54:38;15.00;99.90
43183;DHT22;28802;38.578;-0.066;2022-12-10T03:57:04;15.10;99.90
43183;DHT22;28802;38.578;-0.066;2022-12-10T03:59:30;15.20;99.90
43183;DHT22;28802;38.578;-0.066;2022-12-10T04:01:57;15.10;99.90
43183;DHT22;28802;38.578;-0.066;2022-12-10T04:04:23;15.20;99.90
43183;DHT22;28802;38.578;-0.066;2022-12-10T04:06:48;15.20;99.90
43183;DHT22;28802;38.578;-0.066;2022-12-10T04:09:15;15.00;99.90
43183;DHT22;28802;38.578;-0.066;2022-12-10T04:11:42;14.90;99.90
43183;DHT22;28802;38.578;-0.066;2022-12-10T04:14:10;14.80;99.90
43183;DHT22;28802;38.578;-0.066;2022-12-10T04:16:54;14.70;99.90
43183;DHT22;28802;38.578;-0.066;2022-12-10T04:19:21;14.90;99.90
43183;DHT22;28802;38.578;-0.066;2022-12-10T04:21:47;14.90;99.90
43183;DHT22;28802;38.578;-0.066;2022-12-10T04:24:34;14.70;99.90
43183;DHT22;28802;38.578;-0.066;2022-12-10T04:27:22;14.60;99.90
43183;DHT22;28802;38.578;-0.066;2022-12-10T04:29:49;14.60;99.90
43183;DHT22;28802;38.578;-0.066;2022-12-10T04:32:16;14.50;99.90
43183;DHT22;28802;38.578;-0.066;2022-12-10T04:34:42;14.50;99.90
43183;DHT22;28802;38.578;-0.066;2022-12-10T04:37:08;14.70;99.90
43183;DHT22;28802;38.578;-0.066;2022-12-10T04:39:37;14.90;99.90
43183;DHT22;28802;38.578;-0.066;2022-12-10T04:42:03;14.80;99.90
43183;DHT22;28802;38.578;-0.066;2022-12-10T04:44:29;14.60;99.90
43183;DHT22;28802;38.578;-0.066;2022-12-10T04:46:56;14.60;99.90
43183;DHT22;28802;38.578;-0.066;2022-12-10T04:49:22;14.50;99.90
43183;DHT22;28802;38.578;-0.066;2022-12-10T04:51:48;14.70;99.90
43183;DHT22;28802;38.578;-0.066;2022-12-10T04:54:15;14.90;99.90
43183;DHT22;28802;38.578;-0.066;2022-12-10T04:56:41;15.00;99.90
43183;DHT22;28802;38.578;-0.066;2022-12-10T04:59:10;15.10;99.90
43183;DHT22;28802;38.578;-0.066;2022-12-10T05:01:48;14.90;99.90
43183;DHT22;28802;38.578;-0.066;2022-12-10T05:04:16;14.90;99.90
43183;DHT22;28802;38.578;-0.066;2022-12-10T05:06:43;14.70;99.90
43183;DHT22;28802;38.578;-0.066;2022-12-10T05:09:11;14.60;99.90
43183;DHT22;28802;38.578;-0.066;2022-12-10T05:11:37;14.60;99.90
43183;DHT22;28802;38.578;-0.066;2022-12-10T05:14:03;14.50;99.90
43183;DHT22;28802;38.578;-0.066;2022-12-10T05:16:31;14.60;99.90
43183;DHT22;28802;38.578;-0.066;2022-12-10T05:18:58;14.80;99.90
43183;DHT22;28802;38.578;-0.066;2022-12-10T05:21:25;14.90;99.90
43183;DHT22;28802;38.578;-0.066;2022-12-10T05:24:15;15.00;99.90
43183;DHT22;28802;38.578;-0.066;2022-12-10T05:26:41;14.80;99.90
43183;DHT22;28802;38.578;-0.066;2022-12-10T05:29:08;14.90;99.90
43183;DHT22;28802;38.578;-0.066;2022-12-10T05:31:34;14.80;99.90
43183;DHT22;28802;38.578;-0.066;2022-12-10T05:34:00;14.80;99.90
43183;DHT22;28802;38.578;-0.066;2022-12-10T05:36:28;14.80;99.90
43183;DHT22;28802;38.578;-0.066;2022-12-10T05:38:56;14.70;99.90
43183;DHT22;28802;38.578;-0.066;2022-12-10T05:41:27;14.60;99.90
43183;DHT22;28802;38.578;-0.066;2022-12-10T05:43:55;14.70;99.90
43183;DHT22;28802;38.578;-0.066;2022-12-10T05:46:22;14.70;99.90
43183;DHT22;28802;38.578;-0.066;2022-12-10T05:48:49;14.80;99.90
43183;DHT22;28802;38.578;-0.066;2022-12-10T05:51:29;14.90;99.90
43183;DHT22;28802;38.578;-0.066;2022-12-10T05:53:56;15.10;99.90
43183;DHT22;28802;38.578;-0.066;2022-12-10T05:56:24;15.30;99.90
43183;DHT22;28802;38.578;-0.066;2022-12-10T05:58:57;15.30;99.90
43183;DHT22;28802;38.578;-0.066;2022-12-10T06:01:26;15.40;99.90
43183;DHT22;28802;38.578;-0.066;2022-12-10T06:03:52;15.30;99.90
43183;DHT22;28802;38.578;-0.066;2022-12-10T06:06:22;15.20;99.90
43183;DHT22;28802;38.578;-0.066;2022-12-10T06:08:49;15.20;99.90
43183;DHT22;28802;38.578;-0.066;2022-12-10T06:11:16;15.20;99.90
43183;DHT22;28802;38.578;-0.066;2022-12-10T06:13:42;15.40;99.90
43183;DHT22;28802;38.578;-0.066;2022-12-10T06:16:09;15.30;99.90
43183;DHT22;28802;38.578;-0.066;2022-12-10T06:18:36;15.20;99.90
43183;DHT22;28802;38.578;-0.066;2022-12-10T06:21:08;15.30;99.90
43183;DHT22;28802;38.578;-0.066;2022-12-10T06:23:35;15.40;99.90
43183;DHT22;28802;38.578;-0.066;2022-12-10T06:26:10;15.40;99.90
43183;DHT22;28802;38.578;-0.066;2022-12-10T06:28:37;15.30;99.90
43183;DHT22;28802;38.578;-0.066;2022-12-10T06:31:04;15.30;99.90
43183;DHT22;28802;38.578;-0.066;2022-12-10T06:33:30;15.10;99.90
43183;DHT22;28802;38.578;-0.066;2022-12-10T06:35:55;15.00;99.90
43183;DHT22;28802;38.578;-0.066;2022-12-10T06:38:21;15.00;99.90
43183;DHT22;28802;38.578;-0.066;2022-12-10T06:40:48;15.00;99.90
43183;DHT22;28802;38.578;-0.066;2022-12-10T06:43:14;15.00;99.90
43183;DHT22;28802;38.578;-0.066;2022-12-10T06:45:41;15.00;99.90
43183;DHT22;28802;38.578;-0.066;2022-12-10T06:48:08;15.00;99.90
43183;DHT22;28802;38.578;-0.066;2022-12-10T06:50:34;15.10;99.90
43183;DHT22;28802;38.578;-0.066;2022-12-10T06:53:01;15.20;99.90
43183;DHT22;28802;38.578;-0.066;2022-12-10T06:55:28;15.20;99.90
43183;DHT22;28802;38.578;-0.066;2022-12-10T06:57:54;15.10;99.90
43183;DHT22;28802;38.578;-0.066;2022-12-10T07:00:21;15.10;99.90
43183;DHT22;28802;38.578;-0.066;2022-12-10T07:02:48;15.20;99.90
43183;DHT22;28802;38.578;-0.066;2022-12-10T07:05:14;15.20;99.90
43183;DHT22;28802;38.578;-0.066;2022-12-10T07:07:40;15.30;99.90
43183;DHT22;28802;38.578;-0.066;2022-12-10T07:10:07;15.30;99.90
43183;DHT22;28802;38.578;-0.066;2022-12-10T07:12:33;15.40;99.90
43183;DHT22;28802;38.578;-0.066;2022-12-10T07:14:58;15.60;99.90
43183;DHT22;28802;38.578;-0.066;2022-12-10T07:17:24;15.70;99.90
43183;DHT22;28802;38.578;-0.066;2022-12-10T07:19:50;16.00;99.90
43183;DHT22;28802;38.578;-0.066;2022-12-10T07:22:16;16.30;99.90
43183;DHT22;28802;38.578;-0.066;2022-12-10T07:24:43;16.50;99.90
43183;DHT22;28802;38.578;-0.066;2022-12-10T07:27:09;16.80;99.90
43183;DHT22;28802;38.578;-0.066;2022-12-10T07:29:35;17.10;99.90
43183;DHT22;28802;38.578;-0.066;2022-12-10T07:32:01;17.30;99.90
43183;DHT22;28802;38.578;-0.066;2022-12-10T07:34:27;17.40;99.90
43183;DHT22;28802;38.578;-0.066;2022-12-10T07:36:53;17.50;99.90
43183;DHT22;28802;38.578;-0.066;2022-12-10T07:39:20;18.00;99.90
43183;DHT22;28802;38.578;-0.066;2022-12-10T07:41:51;18.60;99.90
43183;DHT22;28802;38.578;-0.066;2022-12-10T07:44:20;18.90;99.90
43183;DHT22;28802;38.578;-0.066;2022-12-10T07:46:50;19.40;99.90
43183;DHT22;28802;38.578;-0.066;2022-12-10T07:49:17;19.90;99.90
43183;DHT22;28802;38.578;-0.066;2022-12-10T07:51:48;20.40;99.90
43183;DHT22;28802;38.578;-0.066;2022-12-10T07:54:15;20.90;99.90
43183;DHT22;28802;38.578;-0.066;2022-12-10T07:56:41;21.20;99.90
43183;DHT22;28802;38.578;-0.066;2022-12-10T07:59:07;21.60;99.90
43183;DHT22;28802;38.578;-0.066;2022-12-10T08:01:34;21.70;99.90
43183;DHT22;28802;38.578;-0.066;2022-12-10T08:04:02;21.80;99.90
43183;DHT22;28802;38.578;-0.066;2022-12-10T08:06:29;22.20;99.90
43183;DHT22;28802;38.578;-0.066;2022-12-10T08:08:55;22.30;99.90
43183;DHT22;28802;38.578;-0.066;2022-12-10T08:11:22;22.30;99.90
43183;DHT22;28802;38.578;-0.066;2022-12-10T08:13:48;21.60;99.90
43183;DHT22;28802;38.578;-0.066;2022-12-10T08:16:18;21.20;99.90
43183;DHT22;28802;38.578;-0.066;2022-12-10T08:18:44;20.90;99.90
43183;DHT22;28802;38.578;-0.066;2022-12-10T08:21:16;21.20;99.90
43183;DHT22;28802;38.578;-0.066;2022-12-10T08:23:43;21.60;99.90
43183;DHT22;28802;38.578;-0.066;2022-12-10T08:26:12;21.90;99.90
43183;DHT22;28802;38.578;-0.066;2022-12-10T08:28:38;22.60;99.90
43183;DHT22;28802;38.578;-0.066;2022-12-10T08:31:05;23.00;99.90
43183;DHT22;28802;38.578;-0.066;2022-12-10T08:33:36;22.80;99.90
43183;DHT22;28802;38.578;-0.066;2022-12-10T08:36:04;22.60;99.90
43183;DHT22;28802;38.578;-0.066;2022-12-10T08:38:31;22.80;99.90
43183;DHT22;28802;38.578;-0.066;2022-12-10T08:40:57;22.70;99.90
43183;DHT22;28802;38.578;-0.066;2022-12-10T08:43:23;22.90;99.90
43183;DHT22;28802;38.578;-0.066;2022-12-10T08:45:49;23.20;99.90
43183;DHT22;28802;38.578;-0.066;2022-12-10T08:48:15;22.90;99.90
43183;DHT22;28802;38.578;-0.066;2022-12-10T08:50:42;22.40;99.90
43183;DHT22;28802;38.578;-0.066;2022-12-10T08:53:07;22.20;99.90
43183;DHT22;28802;38.578;-0.066;2022-12-10T08:55:37;22.30;99.90
43183;DHT22;28802;38.578;-0.066;2022-12-10T08:58:03;22.50;99.90
43183;DHT22;28802;38.578;-0.066;2022-12-10T09:00:29;22.40;99.90
43183;DHT22;28802;38.578;-0.066;2022-12-10T09:02:55;22.20;99.90
43183;DHT22;28802;38.578;-0.066;2022-12-10T09:05:21;21.50;99.90
43183;DHT22;28802;38.578;-0.066;2022-12-10T09:07:47;21.00;99.90
43183;DHT22;28802;38.578;-0.066;2022-12-10T09:10:13;20.70;99.90
43183;DHT22;28802;38.578;-0.066;2022-12-10T09:12:39;20.30;99.90
43183;DHT22;28802;38.578;-0.066;2022-12-10T09:15:07;20.00;99.90
43183;DHT22;28802;38.578;-0.066;2022-12-10T09:17:35;19.60;99.90
43183;DHT22;28802;38.578;-0.066;2022-12-10T09:20:01;19.70;99.90
43183;DHT22;28802;38.578;-0.066;2022-12-10T09:22:28;19.50;99.90
43183;DHT22;28802;38.578;-0.066;2022-12-10T09:24:54;19.30;99.90
43183;DHT22;28802;38.578;-0.066;2022-12-10T09:27:20;19.30;99.90
43183;DHT22;28802;38.578;-0.066;2022-12-10T09:29:47;19.30;99.90
43183;DHT22;28802;38.578;-0.066;2022-12-10T09:32:13;19.30;99.90
43183;DHT22;28802;38.578;-0.066;2022-12-10T09:34:39;19.20;99.90
43183;DHT22;28802;38.578;-0.066;2022-12-10T09:37:05;19.30;99.90
43183;DHT22;28802;38.578;-0.066;2022-12-10T09:39:31;19.50;99.90
43183;DHT22;28802;38.578;-0.066;2022-12-10T09:47:43;19.90;99.90
43183;DHT22;28802;38.578;-0.066;2022-12-10T09:50:23;19.90;99.90
43183;DHT22;28802;38.578;-0.066;2022-12-10T09:52:54;19.90;99.90
43183;DHT22;28802;38.578;-0.066;2022-12-10T09:55:32;19.90;99.90
43183;DHT22;28802;38.578;-0.066;2022-12-10T09:58:04;20.00;99.90
43183;DHT22;28802;38.578;-0.066;2022-12-10T10:00:37;20.10;99.90
43183;DHT22;28802;38.578;-0.066;2022-12-10T10:03:04;20.20;99.90
43183;DHT22;28802;38.578;-0.066;2022-12-10T10:05:52;20.40;99.90
43183;DHT22;28802;38.578;-0.066;2022-12-10T10:08:38;20.50;99.90
43183;DHT22;28802;38.578;-0.066;2022-12-10T10:11:08;20.60;99.90
43183;DHT22;28802;38.578;-0.066;2022-12-10T10:13:40;20.70;99.90
43183;DHT22;28802;38.578;-0.066;2022-12-10T10:16:22;20.80;99.90
43183;DHT22;28802;38.578;-0.066;2022-12-10T10:21:47;20.90;99.90
43183;DHT22;28802;38.578;-0.066;2022-12-10T10:24:33;20.80;99.90
43183;DHT22;28802;38.578;-0.066;2022-12-10T10:27:29;20.20;99.90
43183;DHT22;28802;38.578;-0.066;2022-12-10T10:29:57;19.80;99.90
43183;DHT22;28802;38.578;-0.066;2022-12-10T10:35:00;19.70;99.90
43183;DHT22;28802;38.578;-0.066;2022-12-10T10:37:38;19.90;99.90
43183;DHT22;28802;38.578;-0.066;2022-12-10T10:40:06;20.90;99.90
43183;DHT22;28802;38.578;-0.066;2022-12-10T10:42:42;22.50;99.90
43183;DHT22;28802;38.578;-0.066;2022-12-10T10:48:33;22.10;99.90
43183;DHT22;28802;38.578;-0.066;2022-12-10T10:53:44;20.10;99.90
43183;DHT22;28802;38.578;-0.066;2022-12-10T10:56:32;20.40;99.90
43183;DHT22;28802;38.578;-0.066;2022-12-10T11:04:52;22.40;99.90
43183;DHT22;28802;38.578;-0.066;2022-12-10T11:09:53;24.30;99.90
43183;DHT22;28802;38.578;-0.066;2022-12-10T11:12:33;24.80;99.90
43183;DHT22;28802;38.578;-0.066;2022-12-10T11:15:00;25.40;99.90
43183;DHT22;28802;38.578;-0.066;2022-12-10T11:17:27;24.80;99.90
43183;DHT22;28802;38.578;-0.066;2022-12-10T11:22:53;24.90;99.90
43183;DHT22;28802;38.578;-0.066;2022-12-10T11:25:28;24.80;99.90
43183;DHT22;28802;38.578;-0.066;2022-12-10T11:30:38;26.30;99.90
43183;DHT22;28802;38.578;-0.066;2022-12-10T11:44:16;25.50;99.90
43183;DHT22;28802;38.578;-0.066;2022-12-10T12:04:12;25.40;99.90
43183;DHT22;28802;38.578;-0.066;2022-12-10T12:09:17;23.20;99.90
43183;DHT22;28802;38.578;-0.066;2022-12-10T12:14:44;22.40;99.90
43183;DHT22;28802;38.578;-0.066;2022-12-10T12:17:36;21.70;99.90
43183;DHT22;28802;38.578;-0.066;2022-12-10T12:20:25;21.30;99.90
43183;DHT22;28802;38.578;-0.066;2022-12-10T12:23:19;20.70;99.90
43183;DHT22;28802;38.578;-0.066;2022-12-10T12:25:47;20.60;99.90
43183;DHT22;28802;38.578;-0.066;2022-12-10T12:28:34;20.70;99.90
43183;DHT22;28802;38.578;-0.066;2022-12-10T12:31:06;21.00;99.90
43183;DHT22;28802;38.578;-0.066;2022-12-10T12:33:54;21.10;99.90
43183;DHT22;28802;38.578;-0.066;2022-12-10T12:36:36;21.10;99.90
43183;DHT22;28802;38.578;-0.066;2022-12-10T12:42:25;20.80;99.90
43183;DHT22;28802;38.578;-0.066;2022-12-10T12:47:47;21.30;99.90
43183;DHT22;28802;38.578;-0.066;2022-12-10T12:53:12;21.80;99.90
43183;DHT22;28802;38.578;-0.066;2022-12-10T13:00:50;19.90;99.90
43183;DHT22;28802;38.578;-0.066;2022-12-10T13:05:55;20.30;99.90
43183;DHT22;28802;38.578;-0.066;2022-12-10T13:10:57;20.20;99.90
43183;DHT22;28802;38.578;-0.066;2022-12-10T13:15:50;19.90;99.90
43183;DHT22;28802;38.578;-0.066;2022-12-10T13:21:15;20.30;99.90
43183;DHT22;28802;38.578;-0.066;2022-12-10T13:24:10;20.30;99.90
43183;DHT22;28802;38.578;-0.066;2022-12-10T13:26:41;20.20;99.90
43183;DHT22;28802;38.578;-0.066;2022-12-10T13:29:26;19.70;99.90
43183;DHT22;28802;38.578;-0.066;2022-12-10T13:34:41;19.80;99.90
43183;DHT22;28802;38.578;-0.066;2022-12-10T13:37:15;19.90;99.90
43183;DHT22;28802;38.578;-0.066;2022-12-10T13:42:37;20.40;99.90
43183;DHT22;28802;38.578;-0.066;2022-12-10T14:06:44;21.10;99.90
43183;DHT22;28802;38.578;-0.066;2022-12-10T14:09:23;21.50;99.90
43183;DHT22;28802;38.578;-0.066;2022-12-10T14:17:04;21.50;99.90
43183;DHT22;28802;38.578;-0.066;2022-12-10T14:19:30;21.20;99.90
43183;DHT22;28802;38.578;-0.066;2022-12-10T14:22:07;21.10;99.90
43183;DHT22;28802;38.578;-0.066;2022-12-10T14:24:36;21.10;99.90
43183;DHT22;28802;38.578;-0.066;2022-12-10T14:27:15;21.00;99.90
43183;DHT22;28802;38.578;-0.066;2022-12-10T14:29:50;21.20;99.90
43183;DHT22;28802;38.578;-0.066;2022-12-10T14:32:25;21.10;99.90
43183;DHT22;28802;38.578;-0.066;2022-12-10T14:34:56;21.00;99.90
43183;DHT22;28802;38.578;-0.066;2022-12-10T14:37:25;20.70;99.90
43183;DHT22;28802;38.578;-0.066;2022-12-10T14:39:52;20.60;99.90
43183;DHT22;28802;38.578;-0.066;2022-12-10T14:42:19;20.50;99.90
43183;DHT22;28802;38.578;-0.066;2022-12-10T14:44:46;20.60;99.90
43183;DHT22;28802;38.578;-0.066;2022-12-10T14:47:19;20.50;99.90
43183;DHT22;28802;38.578;-0.066;2022-12-10T14:49:48;20.50;99.90
43183;DHT22;28802;38.578;-0.066;2022-12-10T14:52:20;20.30;99.90
43183;DHT22;28802;38.578;-0.066;2022-12-10T14:54:46;20.40;99.90
43183;DHT22;28802;38.578;-0.066;2022-12-10T14:57:27;20.30;99.90
43183;DHT22;28802;38.578;-0.066;2022-12-10T15:00:03;20.40;99.90
43183;DHT22;28802;38.578;-0.066;2022-12-10T15:02:31;20.50;99.90
43183;DHT22;28802;38.578;-0.066;2022-12-10T15:04:59;20.70;99.90
43183;DHT22;28802;38.578;-0.066;2022-12-10T15:07:30;20.60;99.90
43183;DHT22;28802;38.578;-0.066;2022-12-10T15:09:58;20.40;99.90
43183;DHT22;28802;38.578;-0.066;2022-12-10T15:14:59;20.50;99.90
43183;DHT22;28802;38.578;-0.066;2022-12-10T15:17:39;20.50;99.90
43183;DHT22;28802;38.578;-0.066;2022-12-10T15:20:23;20.40;99.90
43183;DHT22;28802;38.578;-0.066;2022-12-10T15:22:50;20.30;99.90
43183;DHT22;28802;38.578;-0.066;2022-12-10T15:25:28;20.30;99.90
43183;DHT22;28802;38.578;-0.066;2022-12-10T15:27:56;20.40;99.90
43183;DHT22;28802;38.578;-0.066;2022-12-10T15:30:36;20.40;99.90
43183;DHT22;28802;38.578;-0.066;2022-12-10T15:33:05;20.30;99.90
43183;DHT22;28802;38.578;-0.066;2022-12-10T15:35:46;20.40;99.90
43183;DHT22;28802;38.578;-0.066;2022-12-10T15:38:13;20.60;99.90
43183;DHT22;28802;38.578;-0.066;2022-12-10T15:40:39;20.60;99.90
43183;DHT22;28802;38.578;-0.066;2022-12-10T15:43:27;20.50;99.90
43183;DHT22;28802;38.578;-0.066;2022-12-10T15:45:55;20.40;99.90
43183;DHT22;28802;38.578;-0.066;2022-12-10T15:48:22;20.30;99.90
43183;DHT22;28802;38.578;-0.066;2022-12-10T15:50:51;20.30;99.90
43183;DHT22;28802;38.578;-0.066;2022-12-10T15:53:27;20.10;99.90
43183;DHT22;28802;38.578;-0.066;2022-12-10T15:55:53;19.90;99.90
43183;DHT22;28802;38.578;-0.066;2022-12-10T15:58:19;19.70;99.90
43183;DHT22;28802;38.578;-0.066;2022-12-10T16:00:45;19.50;99.90
43183;DHT22;28802;38.578;-0.066;2022-12-10T16:03:15;19.40;99.90
43183;DHT22;28802;38.578;-0.066;2022-12-10T16:05:41;19.40;99.90
43183;DHT22;28802;38.578;-0.066;2022-12-10T16:08:20;19.30;99.90
43183;DHT22;28802;38.578;-0.066;2022-12-10T16:10:48;19.20;99.90
43183;DHT22;28802;38.578;-0.066;2022-12-10T16:13:18;19.20;99.90
43183;DHT22;28802;38.578;-0.066;2022-12-10T16:15:52;19.10;99.90
43183;DHT22;28802;38.578;-0.066;2022-12-10T16:18:19;19.10;99.90
43183;DHT22;28802;38.578;-0.066;2022-12-10T16:20:46;19.10;99.90
43183;DHT22;28802;38.578;-0.066;2022-12-10T16:23:11;19.00;99.90
43183;DHT22;28802;38.578;-0.066;2022-12-10T16:25:40;18.90;99.90
43183;DHT22;28802;38.578;-0.066;2022-12-10T16:28:18;18.90;99.90
43183;DHT22;28802;38.578;-0.066;2022-12-10T16:30:49;18.90;99.90
43183;DHT22;28802;38.578;-0.066;2022-12-10T16:33:16;18.90;99.90
43183;DHT22;28802;38.578;-0.066;2022-12-10T16:35:44;19.00;99.90
43183;DHT22;28802;38.578;-0.066;2022-12-10T16:38:10;18.90;99.90
43183;DHT22;28802;38.578;-0.066;2022-12-10T16:40:37;18.90;99.90
43183;DHT22;28802;38.578;-0.066;2022-12-10T16:43:04;18.80;99.90
43183;DHT22;28802;38.578;-0.066;2022-12-10T16:45:34;18.80;99.90
43183;DHT22;28802;38.578;-0.066;2022-12-10T16:48:01;18.90;99.90
43183;DHT22;28802;38.578;-0.066;2022-12-10T16:50:27;18.90;99.90
43183;DHT22;28802;38.578;-0.066;2022-12-10T16:52:55;18.90;99.90
43183;DHT22;28802;38.578;-0.066;2022-12-10T16:55:24;18.80;99.90
43183;DHT22;28802;38.578;-0.066;2022-12-10T16:57:51;18.70;99.90
43183;DHT22;28802;38.578;-0.066;2022-12-10T17:00:22;18.60;99.90
43183;DHT22;28802;38.578;-0.066;2022-12-10T17:02:50;18.50;99.90
43183;DHT22;28802;38.578;-0.066;2022-12-10T17:05:39;18.40;99.90
43183;DHT22;28802;38.578;-0.066;2022-12-10T17:08:04;18.30;99.90
43183;DHT22;28802;38.578;-0.066;2022-12-10T17:10:30;18.30;99.90
43183;DHT22;28802;38.578;-0.066;2022-12-10T17:13:15;18.20;99.90
43183;DHT22;28802;38.578;-0.066;2022-12-10T17:15:43;18.20;99.90
43183;DHT22;28802;38.578;-0.066;2022-12-10T17:18:13;18.20;99.90
43183;DHT22;28802;38.578;-0.066;2022-12-10T17:20:39;18.20;99.90
43183;DHT22;28802;38.578;-0.066;2022-12-10T17:23:05;18.10;99.90
43183;DHT22;28802;38.578;-0.066;2022-12-10T17:25:31;18.00;99.90
43183;DHT22;28802;38.578;-0.066;2022-12-10T17:27:57;18.00;99.90
43183;DHT22;28802;38.578;-0.066;2022-12-10T17:30:23;17.90;99.90
43183;DHT22;28802;38.578;-0.066;2022-12-10T17:32:49;17.80;99.90
43183;DHT22;28802;38.578;-0.066;2022-12-10T17:35:15;17.60;99.90
43183;DHT22;28802;38.578;-0.066;2022-12-10T17:37:41;17.50;99.90
43183;DHT22;28802;38.578;-0.066;2022-12-10T17:40:17;17.40;99.90
43183;DHT22;28802;38.578;-0.066;2022-12-10T17:42:43;17.20;99.90
43183;DHT22;28802;38.578;-0.066;2022-12-10T17:45:15;17.10;99.90
43183;DHT22;28802;38.578;-0.066;2022-12-10T17:47:42;17.10;99.90
43183;DHT22;28802;38.578;-0.066;2022-12-10T17:50:35;17.10;99.90